Niobrara, NE

11:53 AM CDT on May 06, 2015 (GMT -0500)
Gurney Municipal | | Change Station
CLOSE
Current Station
Airport
Location: Yankton,
Elevation: 1306 ft
Nearby Weather Stations

Elev 1306 ft 42.92 °N, 97.39 °W | Updated 18 minutes ago

Overcast
Overcast
63 °F
Feels Like 63 °F
N
20
Wind Variable Wind from SE
Gusts 28 mph

Today
High -- | Low -- °F
--% Chance of Precip.
Yesterday
High -- | Low -- °F
Precip. -- in
6:20 AM 8:37 PM
Waning Gibbous, 93% visible
Pressure 29.76 in
Visibility 9.0 miles
Clouds Mostly Cloudy 1400 ft
Overcast 1900 ft
Dew Point 57 °F
Humidity 82%
Rainfall 0.08 in
Snow Depth Not available.
UV 3 out of 12
Pollen 7.40 out of 12
Air Quality Not available.
Flu Activity Local Activity
METAR KYKN 061635Z AUTO 14017G24KT 9SM BKN014 OVC019 17/14 A2976 RMK AO1

More Conditions Fewer Conditions

Pressure 29.76 in
Visibility 9.0 miles
Clouds Mostly Cloudy 1400 ft
Overcast 1900 ft
Dew Point 57 °F
Humidity 82%
Rainfall 0.08 in
Snow Depth Not available.
UV 3 out of 12
Pollen 7.40 out of 12
Air Quality Not available.
Flu Activity Local Activity
METAR KYKN 061635Z AUTO 14017G24KT 9SM BKN014 OVC019 17/14 A2976 RMK AO1

More Conditions Fewer Conditions

10-Day Weather Forecast

Almanac

Astronomy

May. 06, 2015 Rise Set
Actual Time
Civil Twilight
Nautical Twilight
Astronomical Twilight
Moon
Length of Visible Light
Length of Day
Tomorrow will be .
, % of the Moon is Illuminated

Today's Extremes

State Highs State Lows

Community

WunderPhotos

Upload Photos

1,818,949 photos uploaded!

WunderBlogs® & News

Nearby

Air Quality

  Air Quality AQ Index Pollutant
Not available.

Snow Depth

Station Depth Elevation

Earthquake Activity

City Distance Mag. Time & Date
Minimum magnitude displayed is 2.5.

Coastal Water Temperatures

Place Temperature

Stations

Nearby Weather Stations

Station Location Temp. Windchill Dew Point Humidity Wind Precip. Elev Updated Type